createdAt,value
2017-08-04T00:00:00.725Z,18.66
2017-08-04T00:01:01.300Z,18.70
2017-08-04T00:02:01.875Z,18.59
2017-08-04T00:03:02.451Z,18.63
2017-08-04T00:04:03.038Z,18.62
2017-08-04T00:05:03.614Z,18.59
2017-08-04T00:06:04.191Z,18.59
2017-08-04T00:07:04.765Z,18.53
2017-08-04T00:08:05.342Z,18.52
2017-08-04T00:09:05.928Z,18.55
2017-08-04T00:10:06.504Z,18.53
2017-08-04T00:11:07.091Z,18.50
2017-08-04T00:12:07.665Z,18.70
2017-08-04T00:13:08.242Z,18.63
2017-08-04T00:14:08.821Z,18.62
2017-08-04T00:15:09.391Z,18.63
2017-08-04T00:16:09.965Z,18.58
2017-08-04T00:17:10.541Z,18.58
2017-08-04T00:18:11.116Z,18.49
2017-08-04T00:19:11.692Z,18.44
2017-08-04T00:20:12.268Z,18.49
2017-08-04T00:21:12.841Z,18.55
2017-08-04T00:22:13.416Z,18.43
2017-08-04T00:23:13.991Z,18.49
2017-08-04T00:24:14.569Z,18.44
2017-08-04T00:25:15.139Z,18.44
2017-08-04T00:26:15.713Z,18.45
2017-08-04T00:27:16.289Z,18.37
2017-08-04T00:28:16.862Z,18.34
2017-08-04T00:29:17.438Z,18.35
2017-08-04T00:30:18.013Z,18.34
2017-08-04T00:31:18.589Z,18.22
2017-08-04T00:32:19.162Z,18.26
2017-08-04T00:33:19.738Z,18.25
2017-08-04T00:34:20.313Z,18.29
2017-08-04T00:35:20.887Z,18.26
2017-08-04T00:36:21.467Z,18.29
2017-08-04T00:37:22.050Z,18.29
2017-08-04T00:38:22.627Z,18.25
2017-08-04T00:39:23.202Z,18.23
2017-08-04T00:40:23.779Z,18.25
2017-08-04T00:41:24.353Z,18.26
2017-08-04T00:42:24.930Z,18.23
2017-08-04T00:43:25.504Z,18.22
2017-08-04T00:44:26.081Z,18.29
2017-08-04T00:45:26.654Z,18.11
2017-08-04T00:46:27.231Z,18.23
2017-08-04T00:47:27.806Z,18.15
2017-08-04T00:48:28.381Z,18.18
2017-08-04T00:49:28.956Z,18.25
2017-08-04T00:50:29.541Z,18.19
2017-08-04T00:51:30.118Z,18.18
2017-08-04T00:52:30.694Z,18.11
2017-08-04T00:53:31.270Z,18.08
2017-08-04T00:54:31.844Z,18.15
2017-08-04T00:55:32.420Z,18.11
2017-08-04T00:56:32.997Z,18.08
2017-08-04T00:57:33.582Z,18.07
2017-08-04T00:58:34.158Z,18.04
2017-08-04T00:59:34.734Z,18.03
2017-08-04T01:00:35.310Z,18.00
2017-08-04T01:01:35.885Z,18.11
2017-08-04T01:02:36.461Z,18.11
2017-08-04T01:03:37.036Z,18.05
2017-08-04T01:04:37.621Z,18.04
2017-08-04T01:05:38.196Z,18.07
2017-08-04T01:06:38.769Z,18.15
2017-08-04T01:07:39.351Z,18.11
2017-08-04T01:08:39.920Z,18.15
2017-08-04T01:09:40.494Z,18.07
2017-08-04T01:10:41.068Z,18.13
2017-08-04T01:11:41.642Z,18.15
2017-08-04T01:12:42.218Z,18.08
2017-08-04T01:13:42.793Z,18.08
2017-08-04T01:14:43.366Z,18.05
2017-08-04T01:15:43.954Z,18.00
2017-08-04T01:16:44.528Z,17.94
2017-08-04T01:17:45.105Z,17.98
2017-08-04T01:18:45.680Z,17.90
2017-08-04T01:19:46.256Z,17.92
2017-08-04T01:20:46.829Z,17.95
2017-08-04T01:21:47.405Z,17.89
2017-08-04T01:22:47.979Z,17.82
2017-08-04T01:23:48.555Z,17.86
2017-08-04T01:24:49.130Z,17.87
2017-08-04T01:25:55.974Z,17.74
2017-08-04T01:26:56.548Z,17.71
2017-08-04T01:27:57.125Z,17.68
2017-08-04T01:28:57.699Z,17.76
2017-08-04T01:29:58.275Z,17.71
2017-08-04T01:30:58.851Z,17.76
2017-08-04T01:31:59.427Z,17.76
2017-08-04T01:33:00.003Z,17.64
2017-08-04T01:34:00.590Z,17.63
2017-08-04T01:35:01.169Z,17.59
2017-08-04T01:36:01.745Z,17.54
2017-08-04T01:37:02.322Z,17.52
2017-08-04T01:38:02.896Z,17.48
2017-08-04T01:39:03.472Z,17.52
2017-08-04T01:40:04.047Z,17.42
2017-08-04T01:41:04.624Z,17.48
2017-08-04T01:42:05.197Z,17.41
2017-08-04T01:43:05.772Z,17.44
2017-08-04T01:44:06.345Z,17.41
2017-08-04T01:45:06.921Z,17.41
2017-08-04T01:46:07.496Z,17.33
2017-08-04T01:47:08.070Z,17.36
2017-08-04T01:48:08.645Z,17.34
2017-08-04T01:49:09.232Z,17.31
2017-08-04T01:50:09.811Z,17.38
2017-08-04T01:51:10.386Z,17.31
2017-08-04T01:52:10.962Z,17.30
2017-08-04T01:53:11.554Z,17.33
2017-08-04T01:54:12.125Z,17.30
2017-08-04T01:55:12.701Z,17.23
2017-08-04T01:56:13.277Z,17.29
2017-08-04T01:57:13.852Z,17.23
2017-08-04T01:58:14.427Z,17.26
2017-08-04T01:59:15.003Z,17.26
2017-08-04T02:00:15.579Z,17.27
2017-08-04T02:01:16.156Z,17.24
2017-08-04T02:02:16.730Z,17.20
2017-08-04T02:03:17.305Z,17.20
2017-08-04T02:04:17.882Z,17.12
2017-08-04T02:05:18.457Z,17.14
2017-08-04T02:06:19.032Z,17.16
2017-08-04T02:07:19.611Z,17.19
2017-08-04T02:08:20.199Z,17.06
2017-08-04T02:09:20.787Z,17.06
2017-08-04T02:10:21.372Z,17.12
2017-08-04T02:11:21.959Z,17.05
2017-08-04T02:12:22.536Z,17.01
2017-08-04T02:13:23.112Z,16.97
2017-08-04T02:14:23.687Z,16.93
2017-08-04T02:15:24.262Z,16.91
2017-08-04T02:16:24.835Z,16.93
2017-08-04T02:17:25.409Z,16.96
2017-08-04T02:18:25.985Z,16.93
2017-08-04T02:19:26.560Z,16.97
2017-08-04T02:20:27.133Z,16.91
2017-08-04T02:21:27.708Z,16.97
2017-08-04T02:22:28.282Z,16.93
2017-08-04T02:23:28.857Z,16.96
2017-08-04T02:24:29.431Z,16.96
2017-08-04T02:25:30.006Z,16.97
2017-08-04T02:26:30.581Z,16.86
2017-08-04T02:27:31.155Z,16.97
2017-08-04T02:28:31.730Z,16.87
2017-08-04T02:29:32.306Z,16.90
2017-08-04T02:30:32.886Z,16.96
2017-08-04T02:31:33.458Z,16.94
2017-08-04T02:32:34.047Z,16.90
2017-08-04T02:33:34.611Z,16.90
2017-08-04T02:34:35.185Z,16.91
2017-08-04T02:35:35.764Z,16.90
2017-08-04T02:36:36.350Z,16.86
2017-08-04T02:37:36.925Z,16.87
2017-08-04T02:38:37.505Z,16.79
2017-08-04T02:39:38.088Z,16.72
2017-08-04T02:40:38.662Z,16.84
2017-08-04T02:41:39.236Z,16.81
2017-08-04T02:42:39.811Z,16.78
2017-08-04T02:43:40.389Z,16.78
2017-08-04T02:44:40.963Z,16.83
2017-08-04T02:45:41.541Z,16.71
2017-08-04T02:46:42.116Z,16.74
2017-08-04T02:47:42.692Z,16.74
2017-08-04T02:48:43.265Z,16.69
2017-08-04T02:49:43.842Z,16.68
2017-08-04T02:50:44.423Z,16.75
2017-08-04T02:51:44.990Z,16.76
2017-08-04T02:52:45.565Z,16.71
2017-08-04T02:53:46.140Z,16.66
2017-08-04T02:54:46.714Z,16.54
2017-08-04T02:55:47.302Z,16.61
2017-08-04T02:56:47.879Z,16.64
2017-08-04T02:57:48.455Z,16.65
2017-08-04T02:58:49.030Z,16.60
2017-08-04T02:59:49.605Z,16.50
2017-08-04T03:00:50.182Z,16.58
2017-08-04T03:01:50.767Z,16.60
2017-08-04T03:02:51.341Z,16.47
2017-08-04T03:03:51.918Z,16.54
2017-08-04T03:04:52.492Z,16.57
2017-08-04T03:05:53.079Z,16.57
2017-08-04T03:06:53.657Z,16.51
2017-08-04T03:07:54.232Z,16.47
2017-08-04T03:08:54.808Z,16.53
2017-08-04T03:09:55.384Z,16.58
2017-08-04T03:10:55.960Z,16.54
2017-08-04T03:11:56.534Z,16.50
2017-08-04T03:12:57.110Z,16.56
2017-08-04T03:13:57.685Z,16.57
2017-08-04T03:14:58.260Z,16.50
2017-08-04T03:15:58.834Z,16.50
2017-08-04T03:16:59.408Z,16.42
2017-08-04T03:17:59.983Z,16.49
2017-08-04T03:19:00.558Z,16.51
2017-08-04T03:20:01.132Z,16.49
2017-08-04T03:21:01.706Z,16.49
2017-08-04T03:22:02.280Z,16.43
2017-08-04T03:23:02.856Z,16.42
2017-08-04T03:24:03.428Z,16.36
2017-08-04T03:25:04.002Z,16.36
2017-08-04T03:26:04.576Z,16.36
2017-08-04T03:27:05.151Z,16.24
2017-08-04T03:28:05.724Z,16.36
2017-08-04T03:29:06.307Z,16.42
2017-08-04T03:30:06.874Z,16.38
2017-08-04T03:31:07.447Z,16.35
2017-08-04T03:32:08.023Z,16.46
2017-08-04T03:33:08.599Z,16.42
2017-08-04T03:34:09.174Z,16.47
2017-08-04T03:35:09.749Z,16.35
2017-08-04T03:36:10.326Z,16.36
2017-08-04T03:37:10.899Z,16.43
2017-08-04T03:38:11.475Z,16.47
2017-08-04T03:39:12.063Z,16.57
2017-08-04T03:40:12.638Z,16.57
2017-08-04T03:41:13.225Z,16.54
2017-08-04T03:42:13.799Z,16.49
2017-08-04T03:43:14.373Z,16.49
2017-08-04T03:44:14.948Z,16.54
2017-08-04T03:45:15.521Z,16.47
2017-08-04T03:46:16.094Z,16.53
2017-08-04T03:47:16.669Z,16.50
2017-08-04T03:48:17.242Z,16.42
2017-08-04T03:49:17.817Z,16.42
2017-08-04T03:50:18.392Z,16.49
2017-08-04T03:51:18.966Z,16.49
2017-08-04T03:52:19.541Z,16.47
2017-08-04T03:53:20.115Z,16.51
2017-08-04T03:54:20.691Z,16.54
2017-08-04T03:55:21.279Z,16.42
2017-08-04T03:56:21.853Z,16.56
2017-08-04T03:57:22.428Z,16.43
2017-08-04T03:58:23.004Z,16.39
2017-08-04T03:59:23.591Z,16.49
2017-08-04T04:00:24.168Z,16.46
2017-08-04T04:01:24.745Z,16.49
2017-08-04T04:02:25.321Z,16.54
2017-08-04T04:03:25.896Z,16.42
2017-08-04T04:04:26.472Z,16.46
2017-08-04T04:05:27.050Z,16.38
2017-08-04T04:06:27.628Z,16.50
2017-08-04T04:07:28.201Z,16.53
2017-08-04T04:08:28.777Z,16.39
2017-08-04T04:09:29.353Z,16.47
2017-08-04T04:10:29.929Z,16.42
2017-08-04T04:11:30.503Z,16.41
2017-08-04T04:12:31.085Z,16.43
2017-08-04T04:13:31.653Z,16.35
2017-08-04T04:14:32.230Z,16.53
2017-08-04T04:15:32.818Z,16.38
2017-08-04T04:16:33.393Z,16.39
2017-08-04T04:17:33.969Z,16.43
2017-08-04T04:18:34.543Z,16.41
2017-08-04T04:19:35.131Z,16.43
2017-08-04T04:20:35.707Z,16.43
2017-08-04T04:21:36.296Z,16.42
2017-08-04T04:22:36.884Z,16.57
2017-08-04T04:23:37.459Z,16.53
2017-08-04T04:24:38.036Z,16.50
2017-08-04T04:25:38.624Z,16.51
2017-08-04T04:26:39.200Z,16.47
2017-08-04T04:27:39.780Z,16.51
2017-08-04T04:28:40.367Z,16.60
2017-08-04T04:29:40.942Z,16.58
2017-08-04T04:30:41.517Z,16.61
2017-08-04T04:31:42.093Z,16.60
2017-08-04T04:32:42.671Z,16.65
2017-08-04T04:33:43.247Z,16.65
2017-08-04T04:34:43.835Z,16.71
2017-08-04T04:35:44.423Z,16.74
2017-08-04T04:36:44.999Z,16.75
2017-08-04T04:37:45.574Z,16.76
2017-08-04T04:38:46.149Z,16.83
2017-08-04T04:39:46.735Z,16.78
2017-08-04T04:40:47.304Z,16.84
2017-08-04T04:41:47.891Z,16.91
2017-08-04T04:42:48.467Z,16.87
2017-08-04T04:43:49.044Z,16.84
2017-08-04T04:44:49.633Z,17.01
2017-08-04T04:45:50.208Z,16.97
2017-08-04T04:46:50.798Z,16.91
2017-08-04T04:47:51.375Z,17.04
2017-08-04T04:48:51.950Z,17.05
2017-08-04T04:49:52.527Z,17.08
2017-08-04T04:50:53.110Z,17.06
2017-08-04T04:51:53.683Z,17.06
2017-08-04T04:52:54.259Z,17.02
2017-08-04T04:53:54.837Z,17.02
2017-08-04T04:54:55.412Z,17.11
2017-08-04T04:55:55.988Z,17.12
2017-08-04T04:56:56.565Z,17.05
2017-08-04T04:57:57.142Z,17.05
2017-08-04T04:58:57.721Z,17.15
2017-08-04T04:59:58.299Z,17.14
2017-08-04T05:00:58.887Z,17.15
2017-08-04T05:01:59.466Z,17.16
2017-08-04T05:03:00.041Z,17.24
2017-08-04T05:04:00.619Z,17.24
2017-08-04T05:05:01.195Z,17.22
2017-08-04T05:06:01.773Z,17.22
2017-08-04T05:07:02.350Z,17.23
2017-08-04T05:08:02.928Z,17.22
2017-08-04T05:09:03.507Z,17.23
2017-08-04T05:10:04.082Z,17.29
2017-08-04T05:11:04.659Z,17.30
2017-08-04T05:12:05.235Z,17.26
2017-08-04T05:13:05.814Z,17.33
2017-08-04T05:14:06.393Z,17.24
2017-08-04T05:15:06.969Z,17.29
2017-08-04T05:16:07.558Z,17.41
2017-08-04T05:17:08.136Z,17.34
2017-08-04T05:18:08.713Z,17.33
2017-08-04T05:19:09.291Z,17.29
2017-08-04T05:20:09.867Z,17.30
2017-08-04T05:21:10.443Z,17.39
2017-08-04T05:22:11.019Z,17.38
2017-08-04T05:23:11.597Z,17.39
2017-08-04T05:24:12.176Z,17.39
2017-08-04T05:25:12.754Z,17.52
2017-08-04T05:26:13.329Z,17.46
2017-08-04T05:27:13.906Z,17.52
2017-08-04T05:28:14.483Z,17.57
2017-08-04T05:29:15.062Z,17.57
2017-08-04T05:30:15.639Z,17.57
2017-08-04T05:31:16.217Z,17.51
2017-08-04T05:32:16.795Z,17.52
2017-08-04T05:33:17.371Z,17.56
2017-08-04T05:34:17.946Z,17.52
2017-08-04T05:35:18.523Z,17.57
2017-08-04T05:36:19.102Z,17.67
2017-08-04T05:37:19.682Z,17.67
2017-08-04T05:38:20.261Z,17.72
2017-08-04T05:39:20.839Z,17.60
2017-08-04T05:40:21.416Z,17.60
2017-08-04T05:41:21.998Z,17.74
2017-08-04T05:42:22.573Z,17.76
2017-08-04T05:43:23.152Z,17.71
2017-08-04T05:44:23.731Z,17.87
2017-08-04T05:45:24.308Z,17.85
2017-08-04T05:46:24.887Z,17.82
2017-08-04T05:47:25.465Z,17.89
2017-08-04T05:48:26.044Z,17.85
2017-08-04T05:49:26.622Z,17.90
2017-08-04T05:50:27.200Z,17.83
2017-08-04T05:51:27.779Z,17.94
2017-08-04T05:52:28.357Z,17.87
2017-08-04T05:53:28.937Z,18.01
2017-08-04T05:54:29.516Z,17.97
2017-08-04T05:55:30.109Z,17.98
2017-08-04T05:56:30.687Z,17.94
2017-08-04T05:57:31.263Z,17.97
2017-08-04T05:58:31.842Z,18.00
2017-08-04T05:59:32.433Z,18.00
2017-08-04T06:00:33.028Z,18.11
2017-08-04T06:01:33.602Z,18.07
2017-08-04T06:02:34.180Z,18.07
2017-08-04T06:03:34.761Z,18.07
2017-08-04T06:04:35.339Z,18.08
2017-08-04T06:05:35.917Z,18.16
2017-08-04T06:06:36.495Z,18.08
2017-08-04T06:07:37.085Z,18.10
2017-08-04T06:08:37.662Z,18.04
2017-08-04T06:09:38.242Z,18.11
2017-08-04T06:10:38.822Z,18.10
2017-08-04T06:11:39.400Z,18.18
2017-08-04T06:12:39.978Z,18.07
2017-08-04T06:13:40.556Z,18.19
2017-08-04T06:14:41.136Z,18.15
2017-08-04T06:15:41.715Z,18.18
2017-08-04T06:16:42.306Z,18.11
2017-08-04T06:17:42.885Z,18.18
2017-08-04T06:18:43.463Z,18.15
2017-08-04T06:19:44.040Z,18.16
2017-08-04T06:20:44.618Z,18.15
2017-08-04T06:21:45.198Z,18.15
2017-08-04T06:22:45.777Z,18.28
2017-08-04T06:23:46.355Z,18.18
2017-08-04T06:24:46.934Z,18.23
2017-08-04T06:25:47.512Z,18.19
2017-08-04T06:26:48.092Z,18.19
2017-08-04T06:27:48.673Z,18.26
2017-08-04T06:28:49.264Z,18.26
2017-08-04T06:29:49.841Z,18.26
2017-08-04T06:30:50.420Z,18.28
2017-08-04T06:31:50.997Z,18.26
2017-08-04T06:32:51.577Z,18.25
2017-08-04T06:33:52.157Z,18.25
2017-08-04T06:34:52.741Z,18.28
2017-08-04T06:35:53.313Z,18.35
2017-08-04T06:36:53.891Z,18.35
2017-08-04T06:37:54.470Z,18.38
2017-08-04T06:38:55.050Z,18.34
2017-08-04T06:39:55.641Z,18.41
2017-08-04T06:40:56.219Z,18.50
2017-08-04T06:41:56.798Z,18.45
2017-08-04T06:42:57.376Z,18.44
2017-08-04T06:43:57.955Z,18.37
2017-08-04T06:44:58.532Z,18.35
2017-08-04T06:45:59.111Z,18.37
2017-08-04T06:46:59.702Z,18.41
2017-08-04T06:48:00.280Z,18.49
2017-08-04T06:49:00.859Z,18.45
2017-08-04T06:50:01.439Z,18.49
2017-08-04T06:51:02.018Z,18.44
2017-08-04T06:52:02.608Z,18.58
2017-08-04T06:53:03.186Z,18.59
2017-08-04T06:54:03.764Z,18.65
2017-08-04T06:55:04.344Z,18.71
2017-08-04T06:56:04.924Z,18.65
2017-08-04T06:57:05.502Z,18.70
2017-08-04T06:58:06.083Z,18.65
2017-08-04T06:59:06.661Z,18.63
2017-08-04T07:00:07.239Z,18.66
2017-08-04T07:01:07.819Z,18.70
2017-08-04T07:02:08.397Z,18.65
2017-08-04T07:03:08.990Z,18.59
2017-08-04T07:04:09.571Z,18.60
2017-08-04T07:05:10.148Z,18.55
2017-08-04T07:06:10.728Z,18.60
2017-08-04T07:07:11.307Z,18.55
2017-08-04T07:08:11.888Z,18.63
2017-08-04T07:09:12.480Z,18.60
2017-08-04T07:10:13.059Z,18.62
2017-08-04T07:11:13.637Z,18.63
2017-08-04T07:12:14.216Z,18.78
2017-08-04T07:13:14.794Z,18.77
2017-08-04T07:14:15.373Z,18.84
2017-08-04T07:15:15.953Z,18.81
2017-08-04T07:16:16.545Z,18.83
2017-08-04T07:17:17.135Z,18.81
2017-08-04T07:18:17.715Z,18.86
2017-08-04T07:19:18.297Z,18.86
2017-08-04T07:20:18.874Z,18.93
2017-08-04T07:21:19.452Z,18.98
2017-08-04T07:22:20.031Z,19.02
2017-08-04T07:23:20.610Z,18.96
2017-08-04T07:24:21.190Z,19.07
2017-08-04T07:25:21.768Z,19.08
2017-08-04T07:26:22.347Z,18.98
2017-08-04T07:27:22.926Z,19.08
2017-08-04T07:28:23.506Z,19.14
2017-08-04T07:29:24.086Z,19.30
2017-08-04T07:30:24.667Z,19.31
2017-08-04T07:31:25.258Z,19.27
2017-08-04T07:32:25.837Z,19.30
2017-08-04T07:33:26.415Z,19.22
2017-08-04T07:34:26.996Z,19.37
2017-08-04T07:35:27.577Z,19.33
2017-08-04T07:36:28.155Z,19.39
2017-08-04T07:37:28.733Z,19.56
2017-08-04T07:38:29.313Z,19.77
2017-08-04T07:39:29.893Z,19.49
2017-08-04T07:40:30.474Z,19.62
2017-08-04T07:41:31.058Z,19.55
2017-08-04T07:42:31.631Z,19.47
2017-08-04T07:43:32.223Z,19.59
2017-08-04T07:44:32.802Z,19.67
2017-08-04T07:45:33.380Z,19.76
2017-08-04T07:46:33.961Z,19.71
2017-08-04T07:47:34.544Z,19.59
2017-08-04T07:48:35.121Z,19.73
2017-08-04T07:49:35.700Z,19.82
2017-08-04T07:50:36.279Z,19.67
2017-08-04T07:51:36.859Z,19.79
2017-08-04T07:52:37.437Z,19.82
2017-08-04T07:53:38.017Z,19.79
2017-08-04T07:54:38.596Z,19.77
2017-08-04T07:55:39.175Z,19.86
2017-08-04T07:56:39.755Z,19.89
2017-08-04T07:57:40.335Z,19.89
2017-08-04T07:58:40.917Z,19.81
2017-08-04T07:59:41.498Z,19.74
2017-08-04T08:00:42.076Z,19.86
2017-08-04T08:01:42.656Z,19.96
2017-08-04T08:02:43.236Z,20.03
2017-08-04T08:03:43.816Z,20.19
2017-08-04T08:04:44.395Z,20.28
2017-08-04T08:05:44.976Z,20.36
2017-08-04T08:06:45.567Z,20.02
2017-08-04T08:07:46.148Z,20.18
2017-08-04T08:08:46.728Z,20.25
2017-08-04T08:09:47.310Z,20.50
2017-08-04T08:10:47.889Z,20.62
2017-08-04T08:11:48.469Z,20.58
2017-08-04T08:12:49.052Z,20.44
2017-08-04T08:13:49.632Z,20.26
2017-08-04T08:14:50.211Z,20.24
2017-08-04T08:15:50.791Z,20.26
2017-08-04T08:16:51.370Z,20.06
2017-08-04T08:17:51.952Z,20.31
2017-08-04T08:18:52.532Z,20.74
2017-08-04T08:19:53.112Z,20.69
2017-08-04T08:20:53.694Z,20.81
2017-08-04T08:21:54.274Z,20.62
2017-08-04T08:22:54.854Z,20.58
2017-08-04T08:23:55.433Z,20.36
2017-08-04T08:24:56.012Z,20.63
2017-08-04T08:25:56.593Z,20.74
2017-08-04T08:26:57.174Z,20.77
2017-08-04T08:27:57.753Z,20.51
2017-08-04T08:28:58.332Z,20.43
2017-08-04T08:29:58.912Z,20.28
2017-08-04T08:30:59.495Z,20.28
2017-08-04T08:32:00.074Z,20.22
2017-08-04T08:33:00.655Z,20.28
2017-08-04T08:34:01.235Z,20.39
2017-08-04T08:35:01.814Z,20.52
2017-08-04T08:36:02.394Z,20.44
2017-08-04T08:37:02.974Z,20.47
2017-08-04T08:38:03.557Z,20.55
2017-08-04T08:39:04.135Z,20.74
2017-08-04T08:40:04.714Z,20.70
2017-08-04T08:41:05.296Z,20.78
2017-08-04T08:42:05.876Z,20.74
2017-08-04T08:43:06.458Z,20.90
2017-08-04T08:44:07.050Z,20.75
2017-08-04T08:45:07.630Z,20.65
2017-08-04T08:46:08.223Z,20.87
2017-08-04T08:47:08.803Z,21.05
2017-08-04T08:48:09.382Z,21.14
2017-08-04T08:49:09.962Z,20.81
2017-08-04T08:50:10.555Z,20.60
2017-08-04T08:51:11.136Z,20.58
2017-08-04T08:52:11.716Z,20.48
2017-08-04T08:53:12.298Z,20.28
2017-08-04T08:54:12.878Z,20.44
2017-08-04T08:55:13.456Z,20.43
2017-08-04T08:56:14.036Z,20.60
2017-08-04T08:57:14.618Z,20.70
2017-08-04T08:58:15.210Z,20.74
2017-08-04T08:59:15.792Z,20.66
2017-08-04T09:00:16.372Z,20.80
2017-08-04T09:01:16.951Z,20.81
2017-08-04T09:02:17.536Z,20.88
2017-08-04T09:03:18.113Z,20.93
2017-08-04T09:04:18.694Z,21.02
2017-08-04T09:05:19.275Z,21.11
2017-08-04T09:06:19.854Z,21.18
2017-08-04T09:07:20.447Z,21.37
2017-08-04T09:08:21.026Z,21.17
2017-08-04T09:09:21.618Z,21.06
2017-08-04T09:10:22.198Z,21.00
2017-08-04T09:11:22.777Z,20.96
2017-08-04T09:12:23.358Z,20.99
2017-08-04T09:13:23.939Z,21.05
2017-08-04T09:14:24.519Z,21.05
2017-08-04T09:15:25.100Z,20.99
2017-08-04T09:16:25.680Z,21.29
2017-08-04T09:17:26.261Z,21.15
2017-08-04T09:18:26.852Z,21.18
2017-08-04T09:19:27.435Z,21.50
2017-08-04T09:20:28.015Z,21.45
2017-08-04T09:21:28.593Z,21.03
2017-08-04T09:22:29.172Z,21.29
2017-08-04T09:23:29.753Z,21.17
2017-08-04T09:24:30.335Z,21.02
2017-08-04T09:25:30.922Z,21.24
2017-08-04T09:26:31.496Z,21.22
2017-08-04T09:27:32.076Z,21.37
2017-08-04T09:28:32.655Z,21.42
2017-08-04T09:29:33.243Z,21.52
2017-08-04T09:30:33.819Z,21.55
2017-08-04T09:31:34.412Z,21.58
2017-08-04T09:32:34.997Z,21.30
2017-08-04T09:33:35.591Z,21.43
2017-08-04T09:34:36.174Z,21.52
2017-08-04T09:35:36.751Z,21.60
2017-08-04T09:36:37.333Z,21.46
2017-08-04T09:37:37.915Z,21.43
2017-08-04T09:38:38.498Z,21.60
2017-08-04T09:39:39.090Z,21.42
2017-08-04T09:40:39.671Z,21.50
2017-08-04T09:41:40.252Z,21.58
2017-08-04T09:42:40.832Z,21.52
2017-08-04T09:43:41.413Z,21.36
2017-08-04T09:44:41.995Z,21.51
2017-08-04T09:45:42.587Z,21.33
2017-08-04T09:46:43.166Z,21.40
2017-08-04T09:47:43.747Z,21.24
2017-08-04T09:48:44.327Z,21.33
2017-08-04T09:49:44.907Z,21.24
2017-08-04T09:50:45.489Z,21.22
2017-08-04T09:51:46.070Z,21.25
2017-08-04T09:52:46.651Z,21.02
2017-08-04T09:53:47.229Z,21.17
2017-08-04T09:54:47.810Z,21.33
2017-08-04T09:55:48.391Z,21.25
2017-08-04T09:56:48.973Z,21.15
2017-08-04T09:57:49.552Z,20.99
2017-08-04T09:58:50.131Z,21.05
2017-08-04T09:59:50.715Z,20.82
2017-08-04T10:00:51.304Z,20.78
2017-08-04T10:01:51.886Z,20.81
2017-08-04T10:02:52.465Z,20.81
2017-08-04T10:03:53.049Z,20.80
2017-08-04T10:04:53.628Z,20.88
2017-08-04T10:05:54.206Z,20.90
2017-08-04T10:06:54.788Z,20.75
2017-08-04T10:07:55.367Z,20.84
2017-08-04T10:08:55.949Z,20.85
2017-08-04T10:09:56.528Z,20.85
2017-08-04T10:10:57.109Z,20.87
2017-08-04T10:11:57.691Z,20.77
2017-08-04T10:12:58.277Z,20.80
2017-08-04T10:13:58.850Z,21.05
2017-08-04T10:14:59.430Z,21.12
2017-08-04T10:16:00.011Z,21.37
2017-08-04T10:17:00.594Z,21.45
2017-08-04T10:18:01.174Z,21.64
2017-08-04T10:19:01.755Z,21.58
2017-08-04T10:20:02.334Z,21.60
2017-08-04T10:21:02.915Z,21.57
2017-08-04T10:22:03.507Z,21.54
2017-08-04T10:23:04.096Z,21.46
2017-08-04T10:24:04.672Z,21.45
2017-08-04T10:25:05.254Z,21.43
2017-08-04T10:26:05.833Z,21.51
2017-08-04T10:27:06.416Z,21.72
2017-08-04T10:28:06.998Z,21.60
2017-08-04T10:29:07.579Z,21.51
2017-08-04T10:30:08.159Z,21.75
2017-08-04T10:31:08.742Z,22.08
2017-08-04T10:32:09.322Z,22.30
2017-08-04T10:33:09.905Z,22.13
2017-08-04T10:34:10.487Z,22.10
2017-08-04T10:35:11.069Z,22.08
2017-08-04T10:36:11.653Z,21.82
2017-08-04T10:37:12.246Z,21.91
2017-08-04T10:38:12.827Z,22.06
2017-08-04T10:39:13.412Z,22.13
2017-08-04T10:40:13.990Z,22.20
2017-08-04T10:41:14.571Z,22.26
2017-08-04T10:42:15.152Z,22.15
2017-08-04T10:43:15.733Z,22.14
2017-08-04T10:44:16.315Z,22.32
2017-08-04T10:45:16.894Z,22.32
2017-08-04T10:46:17.473Z,22.23
2017-08-04T10:47:18.057Z,22.15
2017-08-04T10:48:18.641Z,21.85
2017-08-04T10:49:19.232Z,21.76
2017-08-04T10:50:19.814Z,21.73
2017-08-04T10:51:20.406Z,21.92
2017-08-04T10:52:20.987Z,21.77
2017-08-04T10:53:21.568Z,21.77
2017-08-04T10:54:22.152Z,21.80
2017-08-04T10:55:22.734Z,22.13
2017-08-04T10:56:23.312Z,22.18
2017-08-04T10:57:23.894Z,22.14
2017-08-04T10:58:24.476Z,22.17
2017-08-04T10:59:25.058Z,22.15
2017-08-04T11:00:25.637Z,22.14
2017-08-04T11:01:26.222Z,22.00
2017-08-04T11:02:26.801Z,21.76
2017-08-04T11:03:27.381Z,21.85
2017-08-04T11:04:27.963Z,21.72
2017-08-04T11:05:28.544Z,21.77
2017-08-04T11:06:29.123Z,21.82
2017-08-04T11:07:29.705Z,21.95
2017-08-04T11:08:30.287Z,21.89
2017-08-04T11:09:30.868Z,21.62
2017-08-04T11:10:31.448Z,21.64
2017-08-04T11:11:32.031Z,21.57
2017-08-04T11:12:32.611Z,21.69
2017-08-04T11:13:33.197Z,21.70
2017-08-04T11:14:33.772Z,21.85
2017-08-04T11:15:34.354Z,21.77
2017-08-04T11:16:34.937Z,21.85
2017-08-04T11:17:35.517Z,21.92
2017-08-04T11:18:36.097Z,21.85
2017-08-04T11:19:36.678Z,21.99
2017-08-04T11:20:37.257Z,21.92
2017-08-04T11:21:37.841Z,21.93
2017-08-04T11:22:38.424Z,22.29
2017-08-04T11:23:39.004Z,21.93
2017-08-04T11:24:39.583Z,22.06
2017-08-04T11:25:40.177Z,21.73
2017-08-04T11:26:40.757Z,21.98
2017-08-04T11:27:41.350Z,21.82
2017-08-04T11:28:41.931Z,22.02
2017-08-04T11:29:42.511Z,22.04
2017-08-04T11:30:43.092Z,22.36
2017-08-04T11:31:43.676Z,22.48
2017-08-04T11:32:44.257Z,22.29
2017-08-04T11:33:44.837Z,22.18
2017-08-04T11:34:45.418Z,22.11
2017-08-04T11:35:46.010Z,22.29
2017-08-04T11:36:46.590Z,22.33
2017-08-04T11:37:47.172Z,22.65
2017-08-04T11:38:47.753Z,22.15
2017-08-04T11:39:48.335Z,22.08
2017-08-04T11:40:48.916Z,22.04
2017-08-04T11:41:49.496Z,21.83
2017-08-04T11:42:50.081Z,21.80
2017-08-04T11:43:50.662Z,21.95
2017-08-04T11:44:51.242Z,22.06
2017-08-04T11:45:51.825Z,22.20
2017-08-04T11:46:52.420Z,22.36
2017-08-04T11:47:53.002Z,22.36
2017-08-04T11:48:53.582Z,22.38
2017-08-04T11:49:54.164Z,22.28
2017-08-04T11:50:54.745Z,22.70
2017-08-04T11:51:55.327Z,22.54
2017-08-04T11:52:55.920Z,22.45
2017-08-04T11:53:56.501Z,22.73
2017-08-04T11:54:57.087Z,22.73
2017-08-04T11:55:57.664Z,22.70
2017-08-04T11:56:58.245Z,22.45
2017-08-04T11:57:58.825Z,22.38
2017-08-04T11:58:59.409Z,22.38
2017-08-04T11:59:59.991Z,22.18
2017-08-04T12:01:00.591Z,22.25
2017-08-04T12:02:01.168Z,22.51
2017-08-04T12:03:01.748Z,22.18
2017-08-04T12:04:02.328Z,21.98
2017-08-04T12:05:02.911Z,21.98
2017-08-04T12:06:03.504Z,21.96
2017-08-04T12:07:04.088Z,21.69
2017-08-04T12:08:04.670Z,21.95
2017-08-04T12:09:05.252Z,22.15
2017-08-04T12:10:05.847Z,22.06
2017-08-04T12:11:06.433Z,22.14
2017-08-04T12:12:07.011Z,22.25
2017-08-04T12:13:07.594Z,22.44
2017-08-04T12:14:08.177Z,22.76
2017-08-04T12:15:08.768Z,22.38
2017-08-04T12:16:09.351Z,22.53
2017-08-04T12:17:09.931Z,22.38
2017-08-04T12:18:10.512Z,22.48
2017-08-04T12:19:11.096Z,22.41
2017-08-04T12:20:11.676Z,22.68
2017-08-04T12:21:12.259Z,22.99
2017-08-04T12:22:12.841Z,22.80
2017-08-04T12:23:13.422Z,22.88
2017-08-04T12:24:14.004Z,22.91
2017-08-04T12:25:14.587Z,23.03
2017-08-04T12:26:15.181Z,23.21
2017-08-04T12:27:15.763Z,23.12
2017-08-04T12:28:16.363Z,23.40
2017-08-04T12:29:16.941Z,23.08
2017-08-04T12:30:17.523Z,23.12
2017-08-04T12:31:18.109Z,22.91
2017-08-04T12:32:18.689Z,22.73
2017-08-04T12:33:19.270Z,22.98
2017-08-04T12:34:19.857Z,23.06
2017-08-04T12:35:20.437Z,23.34
2017-08-04T12:36:21.017Z,23.23
2017-08-04T12:37:21.599Z,23.28
2017-08-04T12:38:22.184Z,23.17
2017-08-04T12:39:22.766Z,23.61
2017-08-04T12:40:23.347Z,23.20
2017-08-04T12:41:23.929Z,22.98
2017-08-04T12:42:24.513Z,23.10
2017-08-04T12:43:25.096Z,22.72
2017-08-04T12:44:25.680Z,22.94
2017-08-04T12:45:26.271Z,22.87
2017-08-04T12:46:26.852Z,23.18
2017-08-04T12:47:27.434Z,23.09
2017-08-04T12:48:28.018Z,23.34
2017-08-04T12:49:28.599Z,23.32
2017-08-04T12:50:29.181Z,23.48
2017-08-04T12:51:29.763Z,23.46
2017-08-04T12:52:30.347Z,23.44
2017-08-04T12:53:30.931Z,23.05
2017-08-04T12:54:31.511Z,23.12
2017-08-04T12:55:32.110Z,23.51
2017-08-04T12:56:32.688Z,23.62
2017-08-04T12:57:33.281Z,23.23
2017-08-04T12:58:33.876Z,22.68
2017-08-04T12:59:34.456Z,22.80